sensor_id;sensor_type;location;lat;lon;timestamp;P1;durP1;ratioP1;P2;durP2;ratioP2
59571;SDS011;59406;45.602;11.904;2022-07-23T00:00:32;17.02;;;13.85;;
59571;SDS011;59406;45.602;11.904;2022-07-23T00:02:58;15.70;;;13.80;;
59571;SDS011;59406;45.602;11.904;2022-07-23T00:05:25;17.05;;;13.75;;
59571;SDS011;59406;45.602;11.904;2022-07-23T00:07:51;15.23;;;12.00;;
59571;SDS011;59406;45.602;11.904;2022-07-23T00:10:17;17.13;;;14.32;;
59571;SDS011;59406;45.602;11.904;2022-07-23T00:12:43;16.30;;;14.43;;
59571;SDS011;59406;45.602;11.904;2022-07-23T00:15:09;16.50;;;13.25;;
59571;SDS011;59406;45.602;11.904;2022-07-23T00:17:35;18.43;;;14.03;;
59571;SDS011;59406;45.602;11.904;2022-07-23T00:20:02;18.35;;;13.60;;
59571;SDS011;59406;45.602;11.904;2022-07-23T00:22:29;18.08;;;12.90;;
59571;SDS011;59406;45.602;11.904;2022-07-23T00:24:55;18.35;;;14.95;;
59571;SDS011;59406;45.602;11.904;2022-07-23T00:27:22;20.42;;;14.95;;
59571;SDS011;59406;45.602;11.904;2022-07-23T00:29:48;18.90;;;14.23;;
59571;SDS011;59406;45.602;11.904;2022-07-23T00:32:15;15.73;;;14.05;;
59571;SDS011;59406;45.602;11.904;2022-07-23T00:34:40;16.92;;;13.68;;
59571;SDS011;59406;45.602;11.904;2022-07-23T00:37:06;18.27;;;15.07;;
59571;SDS011;59406;45.602;11.904;2022-07-23T00:39:32;19.60;;;15.20;;
59571;SDS011;59406;45.602;11.904;2022-07-23T00:41:58;19.17;;;15.20;;
59571;SDS011;59406;45.602;11.904;2022-07-23T00:44:25;18.40;;;14.32;;
59571;SDS011;59406;45.602;11.904;2022-07-23T00:46:54;16.48;;;13.90;;
59571;SDS011;59406;45.602;11.904;2022-07-23T00:49:25;19.80;;;15.82;;
59571;SDS011;59406;45.602;11.904;2022-07-23T00:51:53;22.00;;;17.13;;
59571;SDS011;59406;45.602;11.904;2022-07-23T00:54:21;22.98;;;17.50;;
59571;SDS011;59406;45.602;11.904;2022-07-23T00:56:49;19.80;;;15.55;;
59571;SDS011;59406;45.602;11.904;2022-07-23T00:59:15;17.55;;;14.32;;
59571;SDS011;59406;45.602;11.904;2022-07-23T01:01:42;21.80;;;17.25;;
59571;SDS011;59406;45.602;11.904;2022-07-23T01:04:09;19.87;;;14.83;;
59571;SDS011;59406;45.602;11.904;2022-07-23T01:06:36;21.80;;;18.15;;
59571;SDS011;59406;45.602;11.904;2022-07-23T01:09:06;19.45;;;15.52;;
59571;SDS011;59406;45.602;11.904;2022-07-23T01:11:33;15.68;;;13.35;;
59571;SDS011;59406;45.602;11.904;2022-07-23T01:14:14;20.50;;;16.77;;
59571;SDS011;59406;45.602;11.904;2022-07-23T01:16:42;18.67;;;15.80;;
59571;SDS011;59406;45.602;11.904;2022-07-23T01:19:10;27.27;;;17.13;;
59571;SDS011;59406;45.602;11.904;2022-07-23T01:21:37;19.08;;;15.75;;
59571;SDS011;59406;45.602;11.904;2022-07-23T01:24:06;20.85;;;17.48;;
59571;SDS011;59406;45.602;11.904;2022-07-23T01:26:32;23.33;;;18.88;;
59571;SDS011;59406;45.602;11.904;2022-07-23T01:28:58;22.87;;;17.07;;
59571;SDS011;59406;45.602;11.904;2022-07-23T01:31:25;17.42;;;14.95;;
59571;SDS011;59406;45.602;11.904;2022-07-23T01:33:51;20.00;;;16.85;;
59571;SDS011;59406;45.602;11.904;2022-07-23T01:36:18;21.08;;;17.08;;
59571;SDS011;59406;45.602;11.904;2022-07-23T01:38:44;16.90;;;14.60;;
59571;SDS011;59406;45.602;11.904;2022-07-23T01:41:10;15.90;;;14.00;;
59571;SDS011;59406;45.602;11.904;2022-07-23T01:43:36;21.48;;;18.40;;
59571;SDS011;59406;45.602;11.904;2022-07-23T01:46:02;21.67;;;17.70;;
59571;SDS011;59406;45.602;11.904;2022-07-23T01:48:28;24.88;;;21.13;;
59571;SDS011;59406;45.602;11.904;2022-07-23T01:50:54;23.93;;;20.60;;
59571;SDS011;59406;45.602;11.904;2022-07-23T01:53:20;19.73;;;16.20;;
59571;SDS011;59406;45.602;11.904;2022-07-23T01:55:46;24.50;;;20.30;;
59571;SDS011;59406;45.602;11.904;2022-07-23T01:58:13;23.58;;;19.88;;
59571;SDS011;59406;45.602;11.904;2022-07-23T02:00:39;28.75;;;23.42;;
59571;SDS011;59406;45.602;11.904;2022-07-23T02:03:05;23.57;;;17.67;;
59571;SDS011;59406;45.602;11.904;2022-07-23T02:05:31;29.05;;;25.25;;
59571;SDS011;59406;45.602;11.904;2022-07-23T02:07:58;22.83;;;19.15;;
59571;SDS011;59406;45.602;11.904;2022-07-23T02:10:25;26.88;;;20.10;;
59571;SDS011;59406;45.602;11.904;2022-07-23T02:12:52;24.85;;;19.33;;
59571;SDS011;59406;45.602;11.904;2022-07-23T02:15:18;23.93;;;19.70;;
59571;SDS011;59406;45.602;11.904;2022-07-23T02:17:44;20.55;;;18.17;;
59571;SDS011;59406;45.602;11.904;2022-07-23T02:20:11;22.67;;;18.65;;
59571;SDS011;59406;45.602;11.904;2022-07-23T02:22:38;18.90;;;16.15;;
59571;SDS011;59406;45.602;11.904;2022-07-23T02:25:04;20.50;;;16.33;;
59571;SDS011;59406;45.602;11.904;2022-07-23T02:27:32;19.65;;;16.52;;
59571;SDS011;59406;45.602;11.904;2022-07-23T02:29:58;18.48;;;15.85;;
59571;SDS011;59406;45.602;11.904;2022-07-23T02:32:24;20.08;;;16.20;;
59571;SDS011;59406;45.602;11.904;2022-07-23T02:34:50;20.45;;;18.25;;
59571;SDS011;59406;45.602;11.904;2022-07-23T02:37:16;25.50;;;19.90;;
59571;SDS011;59406;45.602;11.904;2022-07-23T02:39:43;23.83;;;19.63;;
59571;SDS011;59406;45.602;11.904;2022-07-23T02:42:09;24.98;;;19.90;;
59571;SDS011;59406;45.602;11.904;2022-07-23T02:44:35;22.30;;;19.27;;
59571;SDS011;59406;45.602;11.904;2022-07-23T02:47:01;20.88;;;17.73;;
59571;SDS011;59406;45.602;11.904;2022-07-23T02:49:28;22.30;;;17.63;;
59571;SDS011;59406;45.602;11.904;2022-07-23T02:51:53;20.40;;;17.13;;
59571;SDS011;59406;45.602;11.904;2022-07-23T02:54:19;21.02;;;17.17;;
59571;SDS011;59406;45.602;11.904;2022-07-23T02:56:45;15.83;;;14.13;;
59571;SDS011;59406;45.602;11.904;2022-07-23T02:59:11;19.58;;;15.57;;
59571;SDS011;59406;45.602;11.904;2022-07-23T03:01:37;19.60;;;16.58;;
59571;SDS011;59406;45.602;11.904;2022-07-23T03:04:03;17.88;;;15.52;;
59571;SDS011;59406;45.602;11.904;2022-07-23T03:06:29;22.03;;;17.90;;
59571;SDS011;59406;45.602;11.904;2022-07-23T03:08:55;21.88;;;19.52;;
59571;SDS011;59406;45.602;11.904;2022-07-23T03:11:21;22.15;;;18.30;;
59571;SDS011;59406;45.602;11.904;2022-07-23T03:13:47;20.92;;;16.75;;
59571;SDS011;59406;45.602;11.904;2022-07-23T03:16:13;21.87;;;17.53;;
59571;SDS011;59406;45.602;11.904;2022-07-23T03:18:39;21.00;;;16.48;;
59571;SDS011;59406;45.602;11.904;2022-07-23T03:21:06;17.88;;;14.88;;
59571;SDS011;59406;45.602;11.904;2022-07-23T03:23:32;18.25;;;15.88;;
59571;SDS011;59406;45.602;11.904;2022-07-23T03:25:58;20.43;;;16.70;;
59571;SDS011;59406;45.602;11.904;2022-07-23T03:28:24;19.87;;;17.23;;
59571;SDS011;59406;45.602;11.904;2022-07-23T03:30:50;21.90;;;17.67;;
59571;SDS011;59406;45.602;11.904;2022-07-23T03:33:16;19.23;;;15.25;;
59571;SDS011;59406;45.602;11.904;2022-07-23T03:35:44;23.77;;;19.88;;
59571;SDS011;59406;45.602;11.904;2022-07-23T03:38:11;20.60;;;16.57;;
59571;SDS011;59406;45.602;11.904;2022-07-23T03:40:39;17.42;;;15.52;;
59571;SDS011;59406;45.602;11.904;2022-07-23T03:43:05;19.73;;;15.13;;
59571;SDS011;59406;45.602;11.904;2022-07-23T03:45:31;18.15;;;15.18;;
59571;SDS011;59406;45.602;11.904;2022-07-23T03:47:57;18.40;;;16.10;;
59571;SDS011;59406;45.602;11.904;2022-07-23T03:50:24;18.30;;;16.30;;
59571;SDS011;59406;45.602;11.904;2022-07-23T03:52:50;20.27;;;17.45;;
59571;SDS011;59406;45.602;11.904;2022-07-23T03:55:17;16.27;;;12.60;;
59571;SDS011;59406;45.602;11.904;2022-07-23T03:57:43;16.60;;;14.32;;
59571;SDS011;59406;45.602;11.904;2022-07-23T04:00:09;18.63;;;15.45;;
59571;SDS011;59406;45.602;11.904;2022-07-23T04:02:37;17.93;;;15.00;;
59571;SDS011;59406;45.602;11.904;2022-07-23T04:05:04;18.55;;;15.23;;
59571;SDS011;59406;45.602;11.904;2022-07-23T04:07:30;16.88;;;15.07;;
59571;SDS011;59406;45.602;11.904;2022-07-23T04:09:57;19.88;;;16.08;;
59571;SDS011;59406;45.602;11.904;2022-07-23T04:12:23;25.00;;;18.15;;
59571;SDS011;59406;45.602;11.904;2022-07-23T04:14:49;22.70;;;18.43;;
59571;SDS011;59406;45.602;11.904;2022-07-23T04:17:15;23.10;;;18.13;;
59571;SDS011;59406;45.602;11.904;2022-07-23T04:19:42;24.73;;;18.42;;
59571;SDS011;59406;45.602;11.904;2022-07-23T04:22:09;23.67;;;17.75;;
59571;SDS011;59406;45.602;11.904;2022-07-23T04:24:36;20.75;;;17.02;;
59571;SDS011;59406;45.602;11.904;2022-07-23T04:27:03;19.57;;;17.33;;
59571;SDS011;59406;45.602;11.904;2022-07-23T04:29:30;16.80;;;13.85;;
59571;SDS011;59406;45.602;11.904;2022-07-23T04:31:56;21.45;;;15.90;;
59571;SDS011;59406;45.602;11.904;2022-07-23T04:34:22;21.05;;;18.30;;
59571;SDS011;59406;45.602;11.904;2022-07-23T04:36:48;20.17;;;14.80;;
59571;SDS011;59406;45.602;11.904;2022-07-23T04:39:14;20.60;;;16.58;;
59571;SDS011;59406;45.602;11.904;2022-07-23T04:41:40;20.77;;;16.00;;
59571;SDS011;59406;45.602;11.904;2022-07-23T04:44:06;18.10;;;14.48;;
59571;SDS011;59406;45.602;11.904;2022-07-23T04:46:32;24.60;;;18.20;;
59571;SDS011;59406;45.602;11.904;2022-07-23T04:48:58;23.48;;;18.77;;
59571;SDS011;59406;45.602;11.904;2022-07-23T04:51:24;22.88;;;18.88;;
59571;SDS011;59406;45.602;11.904;2022-07-23T04:53:50;23.20;;;19.30;;
59571;SDS011;59406;45.602;11.904;2022-07-23T04:56:16;19.70;;;17.15;;
59571;SDS011;59406;45.602;11.904;2022-07-23T04:58:42;24.47;;;20.30;;
59571;SDS011;59406;45.602;11.904;2022-07-23T05:01:08;19.25;;;15.20;;
59571;SDS011;59406;45.602;11.904;2022-07-23T05:03:34;17.67;;;14.85;;
59571;SDS011;59406;45.602;11.904;2022-07-23T05:06:00;20.73;;;16.65;;
59571;SDS011;59406;45.602;11.904;2022-07-23T05:08:28;35.87;;;20.53;;
59571;SDS011;59406;45.602;11.904;2022-07-23T05:10:54;18.90;;;16.15;;
59571;SDS011;59406;45.602;11.904;2022-07-23T05:13:20;19.15;;;16.00;;
59571;SDS011;59406;45.602;11.904;2022-07-23T05:15:46;20.23;;;15.95;;
59571;SDS011;59406;45.602;11.904;2022-07-23T05:18:12;20.30;;;17.07;;
59571;SDS011;59406;45.602;11.904;2022-07-23T05:20:38;21.83;;;18.48;;
59571;SDS011;59406;45.602;11.904;2022-07-23T05:23:05;18.55;;;16.27;;
59571;SDS011;59406;45.602;11.904;2022-07-23T05:25:31;22.20;;;17.90;;
59571;SDS011;59406;45.602;11.904;2022-07-23T05:27:57;24.53;;;20.77;;
59571;SDS011;59406;45.602;11.904;2022-07-23T05:30:23;23.73;;;20.05;;
59571;SDS011;59406;45.602;11.904;2022-07-23T05:32:49;28.67;;;22.60;;
59571;SDS011;59406;45.602;11.904;2022-07-23T05:35:15;24.67;;;19.77;;
59571;SDS011;59406;45.602;11.904;2022-07-23T05:37:41;26.60;;;18.83;;
59571;SDS011;59406;45.602;11.904;2022-07-23T05:40:08;25.38;;;22.63;;
59571;SDS011;59406;45.602;11.904;2022-07-23T05:42:36;23.33;;;21.00;;
59571;SDS011;59406;45.602;11.904;2022-07-23T05:45:04;24.80;;;22.20;;
59571;SDS011;59406;45.602;11.904;2022-07-23T05:47:40;22.63;;;20.27;;
59571;SDS011;59406;45.602;11.904;2022-07-23T05:50:11;23.45;;;20.45;;
59571;SDS011;59406;45.602;11.904;2022-07-23T05:52:38;24.73;;;21.17;;
59571;SDS011;59406;45.602;11.904;2022-07-23T05:55:04;26.13;;;23.42;;
59571;SDS011;59406;45.602;11.904;2022-07-23T05:57:31;25.43;;;22.80;;
59571;SDS011;59406;45.602;11.904;2022-07-23T05:59:57;25.17;;;21.60;;
59571;SDS011;59406;45.602;11.904;2022-07-23T06:02:23;27.00;;;23.85;;
59571;SDS011;59406;45.602;11.904;2022-07-23T06:04:49;23.60;;;20.77;;
59571;SDS011;59406;45.602;11.904;2022-07-23T06:07:15;19.90;;;16.88;;
59571;SDS011;59406;45.602;11.904;2022-07-23T06:09:41;23.93;;;19.73;;
59571;SDS011;59406;45.602;11.904;2022-07-23T06:12:07;23.17;;;20.70;;
59571;SDS011;59406;45.602;11.904;2022-07-23T06:14:33;22.00;;;19.67;;
59571;SDS011;59406;45.602;11.904;2022-07-23T06:16:59;23.70;;;20.53;;
59571;SDS011;59406;45.602;11.904;2022-07-23T06:19:25;22.95;;;20.55;;
59571;SDS011;59406;45.602;11.904;2022-07-23T06:21:51;21.38;;;17.88;;
59571;SDS011;59406;45.602;11.904;2022-07-23T06:24:17;24.75;;;19.25;;
59571;SDS011;59406;45.602;11.904;2022-07-23T06:26:44;20.77;;;16.95;;
59571;SDS011;59406;45.602;11.904;2022-07-23T06:29:10;19.27;;;15.90;;
59571;SDS011;59406;45.602;11.904;2022-07-23T06:31:36;23.38;;;16.85;;
59571;SDS011;59406;45.602;11.904;2022-07-23T06:34:02;20.20;;;15.80;;
59571;SDS011;59406;45.602;11.904;2022-07-23T06:36:28;16.45;;;14.05;;
59571;SDS011;59406;45.602;11.904;2022-07-23T06:38:55;20.45;;;16.00;;
59571;SDS011;59406;45.602;11.904;2022-07-23T06:41:21;19.70;;;17.60;;
59571;SDS011;59406;45.602;11.904;2022-07-23T06:43:48;19.17;;;17.15;;
59571;SDS011;59406;45.602;11.904;2022-07-23T06:46:14;19.60;;;17.40;;
59571;SDS011;59406;45.602;11.904;2022-07-23T06:48:40;19.92;;;16.95;;
59571;SDS011;59406;45.602;11.904;2022-07-23T06:51:06;17.93;;;16.03;;
59571;SDS011;59406;45.602;11.904;2022-07-23T06:53:32;18.60;;;16.60;;
59571;SDS011;59406;45.602;11.904;2022-07-23T06:55:58;19.83;;;16.98;;
59571;SDS011;59406;45.602;11.904;2022-07-23T06:58:24;17.90;;;16.00;;
59571;SDS011;59406;45.602;11.904;2022-07-23T07:00:50;19.37;;;16.20;;
59571;SDS011;59406;45.602;11.904;2022-07-23T07:03:17;21.63;;;17.50;;
59571;SDS011;59406;45.602;11.904;2022-07-23T07:05:44;21.02;;;17.20;;
59571;SDS011;59406;45.602;11.904;2022-07-23T07:08:11;17.38;;;15.60;;
59571;SDS011;59406;45.602;11.904;2022-07-23T07:10:37;18.20;;;16.17;;
59571;SDS011;59406;45.602;11.904;2022-07-23T07:13:03;21.00;;;16.83;;
59571;SDS011;59406;45.602;11.904;2022-07-23T07:15:28;17.08;;;15.23;;
59571;SDS011;59406;45.602;11.904;2022-07-23T07:17:54;18.05;;;16.25;;
59571;SDS011;59406;45.602;11.904;2022-07-23T07:20:20;18.52;;;16.15;;
59571;SDS011;59406;45.602;11.904;2022-07-23T07:22:46;19.23;;;16.97;;
59571;SDS011;59406;45.602;11.904;2022-07-23T07:25:12;18.25;;;16.02;;
59571;SDS011;59406;45.602;11.904;2022-07-23T07:27:39;17.17;;;15.38;;
59571;SDS011;59406;45.602;11.904;2022-07-23T07:30:05;17.52;;;15.70;;
59571;SDS011;59406;45.602;11.904;2022-07-23T07:32:32;17.48;;;14.52;;
59571;SDS011;59406;45.602;11.904;2022-07-23T07:34:59;19.43;;;15.87;;
59571;SDS011;59406;45.602;11.904;2022-07-23T07:37:25;16.42;;;14.18;;
59571;SDS011;59406;45.602;11.904;2022-07-23T07:39:51;17.17;;;15.50;;
59571;SDS011;59406;45.602;11.904;2022-07-23T07:42:16;17.92;;;15.73;;
59571;SDS011;59406;45.602;11.904;2022-07-23T07:44:43;16.83;;;15.00;;
59571;SDS011;59406;45.602;11.904;2022-07-23T07:47:09;18.45;;;16.35;;
59571;SDS011;59406;45.602;11.904;2022-07-23T07:49:34;17.65;;;15.13;;
59571;SDS011;59406;45.602;11.904;2022-07-23T07:52:00;17.25;;;14.82;;
59571;SDS011;59406;45.602;11.904;2022-07-23T07:54:26;17.70;;;14.70;;
59571;SDS011;59406;45.602;11.904;2022-07-23T07:56:52;16.85;;;15.15;;
59571;SDS011;59406;45.602;11.904;2022-07-23T07:59:19;18.38;;;16.00;;
59571;SDS011;59406;45.602;11.904;2022-07-23T08:01:44;17.08;;;15.27;;
59571;SDS011;59406;45.602;11.904;2022-07-23T08:04:10;17.23;;;15.53;;
59571;SDS011;59406;45.602;11.904;2022-07-23T08:06:36;16.65;;;14.80;;
59571;SDS011;59406;45.602;11.904;2022-07-23T08:09:03;15.95;;;14.35;;
59571;SDS011;59406;45.602;11.904;2022-07-23T08:11:29;17.13;;;14.82;;
59571;SDS011;59406;45.602;11.904;2022-07-23T08:13:55;15.40;;;13.90;;
59571;SDS011;59406;45.602;11.904;2022-07-23T08:16:21;17.50;;;15.70;;
59571;SDS011;59406;45.602;11.904;2022-07-23T08:18:47;16.13;;;14.50;;
59571;SDS011;59406;45.602;11.904;2022-07-23T08:21:13;16.63;;;14.82;;
59571;SDS011;59406;45.602;11.904;2022-07-23T08:23:39;16.92;;;14.73;;
59571;SDS011;59406;45.602;11.904;2022-07-23T08:26:05;16.37;;;14.70;;
59571;SDS011;59406;45.602;11.904;2022-07-23T08:28:37;16.75;;;15.05;;
59571;SDS011;59406;45.602;11.904;2022-07-23T08:31:03;16.77;;;15.07;;
59571;SDS011;59406;45.602;11.904;2022-07-23T08:33:30;16.30;;;14.65;;
59571;SDS011;59406;45.602;11.904;2022-07-23T08:35:56;17.27;;;15.60;;
59571;SDS011;59406;45.602;11.904;2022-07-23T08:38:23;15.37;;;13.87;;
59571;SDS011;59406;45.602;11.904;2022-07-23T08:40:51;16.05;;;14.48;;
59571;SDS011;59406;45.602;11.904;2022-07-23T08:43:22;17.33;;;15.57;;
59571;SDS011;59406;45.602;11.904;2022-07-23T08:45:53;17.15;;;15.02;;
59571;SDS011;59406;45.602;11.904;2022-07-23T08:48:25;16.15;;;14.57;;
59571;SDS011;59406;45.602;11.904;2022-07-23T08:50:56;15.73;;;14.33;;
59571;SDS011;59406;45.602;11.904;2022-07-23T08:53:23;16.70;;;15.20;;
59571;SDS011;59406;45.602;11.904;2022-07-23T08:55:55;17.30;;;15.63;;
59571;SDS011;59406;45.602;11.904;2022-07-23T08:58:23;15.95;;;14.35;;
59571;SDS011;59406;45.602;11.904;2022-07-23T09:00:50;16.38;;;14.80;;
59571;SDS011;59406;45.602;11.904;2022-07-23T09:03:17;17.03;;;15.13;;
59571;SDS011;59406;45.602;11.904;2022-07-23T09:05:51;16.75;;;15.15;;
59571;SDS011;59406;45.602;11.904;2022-07-23T09:08:19;17.00;;;15.43;;
59571;SDS011;59406;45.602;11.904;2022-07-23T09:13:33;17.52;;;15.82;;
59571;SDS011;59406;45.602;11.904;2022-07-23T09:16:01;18.23;;;16.63;;
59571;SDS011;59406;45.602;11.904;2022-07-23T09:18:35;17.17;;;15.68;;
59571;SDS011;59406;45.602;11.904;2022-07-23T09:26:20;18.67;;;17.17;;
59571;SDS011;59406;45.602;11.904;2022-07-23T09:31:33;19.10;;;17.10;;
59571;SDS011;59406;45.602;11.904;2022-07-23T09:34:11;20.48;;;18.35;;
59571;SDS011;59406;45.602;11.904;2022-07-23T09:36:39;18.25;;;16.55;;
59571;SDS011;59406;45.602;11.904;2022-07-23T09:39:06;18.30;;;16.52;;
59571;SDS011;59406;45.602;11.904;2022-07-23T09:41:40;19.10;;;17.27;;
59571;SDS011;59406;45.602;11.904;2022-07-23T09:44:11;19.80;;;18.10;;
59571;SDS011;59406;45.602;11.904;2022-07-23T09:46:41;19.60;;;17.77;;
59571;SDS011;59406;45.602;11.904;2022-07-23T09:49:12;18.25;;;16.58;;
59571;SDS011;59406;45.602;11.904;2022-07-23T09:51:49;18.75;;;17.02;;
59571;SDS011;59406;45.602;11.904;2022-07-23T09:56:58;17.40;;;15.93;;
59571;SDS011;59406;45.602;11.904;2022-07-23T09:59:30;18.15;;;16.63;;
59571;SDS011;59406;45.602;11.904;2022-07-23T10:01:59;19.02;;;17.35;;
59571;SDS011;59406;45.602;11.904;2022-07-23T10:04:27;18.45;;;16.85;;
59571;SDS011;59406;45.602;11.904;2022-07-23T10:06:58;16.50;;;15.17;;
59571;SDS011;59406;45.602;11.904;2022-07-23T10:09:35;18.08;;;16.58;;
59571;SDS011;59406;45.602;11.904;2022-07-23T10:12:13;19.73;;;18.00;;
59571;SDS011;59406;45.602;11.904;2022-07-23T10:15:03;17.00;;;15.60;;
59571;SDS011;59406;45.602;11.904;2022-07-23T10:17:33;16.02;;;14.63;;
59571;SDS011;59406;45.602;11.904;2022-07-23T10:20:01;17.10;;;15.60;;
59571;SDS011;59406;45.602;11.904;2022-07-23T10:22:33;18.50;;;17.08;;
59571;SDS011;59406;45.602;11.904;2022-07-23T10:30:51;18.73;;;17.25;;
59571;SDS011;59406;45.602;11.904;2022-07-23T10:33:46;17.70;;;16.27;;
59571;SDS011;59406;45.602;11.904;2022-07-23T10:39:17;17.85;;;16.45;;
59571;SDS011;59406;45.602;11.904;2022-07-23T10:41:47;16.42;;;15.13;;
59571;SDS011;59406;45.602;11.904;2022-07-23T10:44:19;17.67;;;16.35;;
59571;SDS011;59406;45.602;11.904;2022-07-23T10:47:01;17.43;;;16.03;;
59571;SDS011;59406;45.602;11.904;2022-07-23T10:49:47;16.35;;;15.18;;
59571;SDS011;59406;45.602;11.904;2022-07-23T10:54:47;16.80;;;15.50;;
59571;SDS011;59406;45.602;11.904;2022-07-23T10:57:15;17.80;;;16.40;;
59571;SDS011;59406;45.602;11.904;2022-07-23T11:02:45;16.88;;;15.77;;
59571;SDS011;59406;45.602;11.904;2022-07-23T11:05:14;16.60;;;15.40;;
59571;SDS011;59406;45.602;11.904;2022-07-23T11:13:45;17.42;;;16.02;;
59571;SDS011;59406;45.602;11.904;2022-07-23T11:16:16;18.35;;;16.92;;
59571;SDS011;59406;45.602;11.904;2022-07-23T11:34:34;19.13;;;17.87;;
59571;SDS011;59406;45.602;11.904;2022-07-23T11:37:04;20.75;;;19.38;;
59571;SDS011;59406;45.602;11.904;2022-07-23T11:39:34;19.50;;;18.30;;
59571;SDS011;59406;45.602;11.904;2022-07-23T11:42:01;19.95;;;18.80;;
59571;SDS011;59406;45.602;11.904;2022-07-23T11:44:34;21.35;;;20.05;;
59571;SDS011;59406;45.602;11.904;2022-07-23T11:47:03;23.23;;;21.73;;
59571;SDS011;59406;45.602;11.904;2022-07-23T11:49:35;22.20;;;20.90;;
59571;SDS011;59406;45.602;11.904;2022-07-23T11:54:31;22.42;;;21.00;;
59571;SDS011;59406;45.602;11.904;2022-07-23T11:57:00;21.92;;;20.52;;
59571;SDS011;59406;45.602;11.904;2022-07-23T11:59:29;23.00;;;21.60;;
59571;SDS011;59406;45.602;11.904;2022-07-23T12:02:02;22.58;;;21.17;;
59571;SDS011;59406;45.602;11.904;2022-07-23T12:12:41;23.10;;;21.47;;
59571;SDS011;59406;45.602;11.904;2022-07-23T12:15:10;23.92;;;22.40;;
59571;SDS011;59406;45.602;11.904;2022-07-23T12:17:39;24.13;;;22.67;;
59571;SDS011;59406;45.602;11.904;2022-07-23T12:20:08;23.27;;;21.88;;
59571;SDS011;59406;45.602;11.904;2022-07-23T12:22:40;22.88;;;21.30;;
59571;SDS011;59406;45.602;11.904;2022-07-23T12:25:12;20.30;;;19.00;;
59571;SDS011;59406;45.602;11.904;2022-07-23T12:27:40;19.95;;;18.73;;
59571;SDS011;59406;45.602;11.904;2022-07-23T12:30:23;19.17;;;18.02;;
59571;SDS011;59406;45.602;11.904;2022-07-23T12:32:54;20.98;;;19.48;;
59571;SDS011;59406;45.602;11.904;2022-07-23T12:35:22;21.55;;;20.25;;
59571;SDS011;59406;45.602;11.904;2022-07-23T12:37:59;22.40;;;20.90;;
59571;SDS011;59406;45.602;11.904;2022-07-23T12:45:24;22.98;;;21.48;;
59571;SDS011;59406;45.602;11.904;2022-07-23T12:47:58;23.23;;;21.80;;
59571;SDS011;59406;45.602;11.904;2022-07-23T12:50:42;23.42;;;22.02;;
59571;SDS011;59406;45.602;11.904;2022-07-23T12:53:22;24.35;;;23.02;;
59571;SDS011;59406;45.602;11.904;2022-07-23T12:55:49;26.27;;;24.77;;
59571;SDS011;59406;45.602;11.904;2022-07-23T12:58:20;25.92;;;24.50;;
59571;SDS011;59406;45.602;11.904;2022-07-23T13:01:01;24.63;;;23.03;;
59571;SDS011;59406;45.602;11.904;2022-07-23T13:06:00;25.23;;;23.73;;
59571;SDS011;59406;45.602;11.904;2022-07-23T13:08:28;24.02;;;22.63;;
59571;SDS011;59406;45.602;11.904;2022-07-23T13:10:56;24.52;;;23.13;;
59571;SDS011;59406;45.602;11.904;2022-07-23T13:13:24;23.63;;;22.30;;
59571;SDS011;59406;45.602;11.904;2022-07-23T13:15:52;23.58;;;22.10;;
59571;SDS011;59406;45.602;11.904;2022-07-23T13:18:19;23.75;;;22.38;;
59571;SDS011;59406;45.602;11.904;2022-07-23T13:20:47;23.92;;;22.27;;
59571;SDS011;59406;45.602;11.904;2022-07-23T13:23:14;24.13;;;22.63;;
59571;SDS011;59406;45.602;11.904;2022-07-23T13:25:41;25.23;;;23.73;;
59571;SDS011;59406;45.602;11.904;2022-07-23T13:28:07;25.75;;;24.35;;
59571;SDS011;59406;45.602;11.904;2022-07-23T13:30:34;24.30;;;22.73;;
59571;SDS011;59406;45.602;11.904;2022-07-23T13:33:01;23.92;;;22.63;;
59571;SDS011;59406;45.602;11.904;2022-07-23T13:35:29;27.55;;;26.05;;
59571;SDS011;59406;45.602;11.904;2022-07-23T13:37:55;28.80;;;27.00;;
59571;SDS011;59406;45.602;11.904;2022-07-23T13:40:21;29.73;;;28.10;;
59571;SDS011;59406;45.602;11.904;2022-07-23T13:42:47;26.80;;;25.25;;
59571;SDS011;59406;45.602;11.904;2022-07-23T13:45:13;25.70;;;23.88;;
59571;SDS011;59406;45.602;11.904;2022-07-23T13:47:39;23.70;;;22.20;;
59571;SDS011;59406;45.602;11.904;2022-07-23T13:50:05;24.58;;;22.77;;
59571;SDS011;59406;45.602;11.904;2022-07-23T13:52:32;25.60;;;24.00;;
59571;SDS011;59406;45.602;11.904;2022-07-23T13:55:03;25.20;;;23.60;;
59571;SDS011;59406;45.602;11.904;2022-07-23T13:57:31;23.92;;;22.42;;
59571;SDS011;59406;45.602;11.904;2022-07-23T13:59:58;21.93;;;20.57;;
59571;SDS011;59406;45.602;11.904;2022-07-23T14:02:24;23.13;;;21.48;;
59571;SDS011;59406;45.602;11.904;2022-07-23T14:04:50;22.75;;;21.17;;
59571;SDS011;59406;45.602;11.904;2022-07-23T14:07:17;22.10;;;20.30;;
59571;SDS011;59406;45.602;11.904;2022-07-23T14:09:44;22.30;;;20.77;;
59571;SDS011;59406;45.602;11.904;2022-07-23T14:12:10;21.17;;;19.70;;
59571;SDS011;59406;45.602;11.904;2022-07-23T14:14:36;21.05;;;19.52;;
59571;SDS011;59406;45.602;11.904;2022-07-23T14:17:03;20.77;;;19.33;;
59571;SDS011;59406;45.602;11.904;2022-07-23T14:19:29;21.63;;;20.15;;
59571;SDS011;59406;45.602;11.904;2022-07-23T14:21:55;20.92;;;19.42;;
59571;SDS011;59406;45.602;11.904;2022-07-23T14:24:21;20.47;;;18.97;;
59571;SDS011;59406;45.602;11.904;2022-07-23T14:26:47;18.75;;;17.45;;
59571;SDS011;59406;45.602;11.904;2022-07-23T14:29:13;20.20;;;18.50;;
59571;SDS011;59406;45.602;11.904;2022-07-23T14:31:39;20.27;;;18.70;;
59571;SDS011;59406;45.602;11.904;2022-07-23T14:34:05;19.08;;;17.55;;
59571;SDS011;59406;45.602;11.904;2022-07-23T14:36:31;19.60;;;18.20;;
59571;SDS011;59406;45.602;11.904;2022-07-23T14:38:57;20.77;;;19.23;;
59571;SDS011;59406;45.602;11.904;2022-07-23T14:41:23;17.88;;;16.58;;
59571;SDS011;59406;45.602;11.904;2022-07-23T14:43:49;18.97;;;17.57;;
59571;SDS011;59406;45.602;11.904;2022-07-23T14:46:16;18.67;;;17.40;;
59571;SDS011;59406;45.602;11.904;2022-07-23T14:48:41;18.23;;;16.83;;
59571;SDS011;59406;45.602;11.904;2022-07-23T14:51:07;18.25;;;16.75;;
59571;SDS011;59406;45.602;11.904;2022-07-23T14:53:33;17.83;;;16.33;;
59571;SDS011;59406;45.602;11.904;2022-07-23T14:55:59;17.33;;;15.93;;
59571;SDS011;59406;45.602;11.904;2022-07-23T14:58:25;17.40;;;16.10;;
59571;SDS011;59406;45.602;11.904;2022-07-23T15:00:51;15.90;;;14.60;;
59571;SDS011;59406;45.602;11.904;2022-07-23T15:03:18;17.25;;;15.75;;
59571;SDS011;59406;45.602;11.904;2022-07-23T15:05:43;15.47;;;14.27;;
59571;SDS011;59406;45.602;11.904;2022-07-23T15:08:09;17.98;;;16.42;;
59571;SDS011;59406;45.602;11.904;2022-07-23T15:10:36;16.73;;;15.43;;
59571;SDS011;59406;45.602;11.904;2022-07-23T15:13:02;15.63;;;14.33;;
59571;SDS011;59406;45.602;11.904;2022-07-23T15:15:28;17.38;;;15.65;;
59571;SDS011;59406;45.602;11.904;2022-07-23T15:17:54;16.30;;;14.90;;